SCLC weather

Municipal de Vitacura Airport
Santiago, Santiago Metropolitan Region, Chile

Public forecast

Using degrees Celsius for public forecast. Weather courtesy of forecast.io.

METAR (pilot weather report)

Report is more than 6 hours old.

Closest report is Eulogio Sánchez Airport, 4.9 nm (9.0 km) SSE. Retrieved 2019/07/19 22:00 UTC (11 hours ago):

SCTB 192200Z 00000KT 5000 HZ NSC 14/05 Q1018

TAF (pilot weather forecast)

Closest forecast is Comodoro Arturo Merino Benítez International Airport, 10.2 nm (19.0 km) W. Retrieved 2019/07/20 06:00 UTC (3 hours ago):

TAF SCEL 200434Z 2006/2106 16004KT 5000 HZ NSC TX15/2019Z TN04/2010Z TEMPO 2010/2015 3000 HZ BECMG 2015/2017 19005KT 7000 FEW180 BKN220 BECMG 2021/2023 8000 SCT180 BKN200 BECMG 2103/2105 01004KT BKN150